sensor_id;sensor_type;location;lat;lon;timestamp;temperature;humidity
17364;DHT22;8799;43.594;13.526;2022-07-29T00:00:28;26.60;89.20
17364;DHT22;8799;43.594;13.526;2022-07-29T00:02:56;26.60;89.00
17364;DHT22;8799;43.594;13.526;2022-07-29T00:05:24;26.70;88.90
17364;DHT22;8799;43.594;13.526;2022-07-29T00:07:52;26.80;88.80
17364;DHT22;8799;43.594;13.526;2022-07-29T00:10:20;26.80;88.40
17364;DHT22;8799;43.594;13.526;2022-07-29T00:12:49;26.80;88.10
17364;DHT22;8799;43.594;13.526;2022-07-29T00:15:18;26.70;88.00
17364;DHT22;8799;43.594;13.526;2022-07-29T00:17:45;26.50;88.60
17364;DHT22;8799;43.594;13.526;2022-07-29T00:20:13;26.40;89.10
17364;DHT22;8799;43.594;13.526;2022-07-29T00:22:41;26.30;88.90
17364;DHT22;8799;43.594;13.526;2022-07-29T00:25:09;26.20;88.70
17364;DHT22;8799;43.594;13.526;2022-07-29T00:27:37;26.20;88.10
17364;DHT22;8799;43.594;13.526;2022-07-29T00:30:06;26.20;88.10
17364;DHT22;8799;43.594;13.526;2022-07-29T00:32:36;26.10;88.40
17364;DHT22;8799;43.594;13.526;2022-07-29T00:35:04;26.10;88.60
17364;DHT22;8799;43.594;13.526;2022-07-29T00:37:49;26.10;89.20
17364;DHT22;8799;43.594;13.526;2022-07-29T00:40:17;26.10;89.80
17364;DHT22;8799;43.594;13.526;2022-07-29T00:42:45;26.20;90.60
17364;DHT22;8799;43.594;13.526;2022-07-29T00:45:14;26.20;91.30
17364;DHT22;8799;43.594;13.526;2022-07-29T00:47:44;26.30;91.30
17364;DHT22;8799;43.594;13.526;2022-07-29T00:50:13;26.30;90.90
17364;DHT22;8799;43.594;13.526;2022-07-29T00:52:41;26.30;90.50
17364;DHT22;8799;43.594;13.526;2022-07-29T00:55:10;26.40;89.40
17364;DHT22;8799;43.594;13.526;2022-07-29T00:57:38;26.40;89.70
17364;DHT22;8799;43.594;13.526;2022-07-29T01:00:10;26.30;90.00
17364;DHT22;8799;43.594;13.526;2022-07-29T01:02:37;26.30;90.10
17364;DHT22;8799;43.594;13.526;2022-07-29T01:05:08;26.30;90.20
17364;DHT22;8799;43.594;13.526;2022-07-29T01:07:36;26.30;89.90
17364;DHT22;8799;43.594;13.526;2022-07-29T01:10:07;26.40;89.70
17364;DHT22;8799;43.594;13.526;2022-07-29T01:12:36;26.40;88.60
17364;DHT22;8799;43.594;13.526;2022-07-29T01:15:06;26.40;87.60
17364;DHT22;8799;43.594;13.526;2022-07-29T01:17:38;26.50;86.80
17364;DHT22;8799;43.594;13.526;2022-07-29T01:20:15;26.50;86.10
17364;DHT22;8799;43.594;13.526;2022-07-29T01:23:05;26.60;85.40
17364;DHT22;8799;43.594;13.526;2022-07-29T01:26:12;26.60;85.70
17364;DHT22;8799;43.594;13.526;2022-07-29T01:29:01;26.40;86.70
17364;DHT22;8799;43.594;13.526;2022-07-29T01:31:35;26.20;87.40
17364;DHT22;8799;43.594;13.526;2022-07-29T01:34:07;26.20;88.00
17364;DHT22;8799;43.594;13.526;2022-07-29T01:36:43;26.10;88.60
17364;DHT22;8799;43.594;13.526;2022-07-29T01:39:14;26.10;89.10
17364;DHT22;8799;43.594;13.526;2022-07-29T01:41:49;26.00;89.20
17364;DHT22;8799;43.594;13.526;2022-07-29T01:44:24;26.10;88.20
17364;DHT22;8799;43.594;13.526;2022-07-29T01:46:57;26.10;88.50
17364;DHT22;8799;43.594;13.526;2022-07-29T01:49:28;26.00;88.90
17364;DHT22;8799;43.594;13.526;2022-07-29T01:51:59;26.00;89.70
17364;DHT22;8799;43.594;13.526;2022-07-29T01:54:34;25.90;89.40
17364;DHT22;8799;43.594;13.526;2022-07-29T01:57:04;25.90;89.10
17364;DHT22;8799;43.594;13.526;2022-07-29T01:59:37;26.00;89.70
17364;DHT22;8799;43.594;13.526;2022-07-29T02:02:07;26.00;89.60
17364;DHT22;8799;43.594;13.526;2022-07-29T02:04:37;26.00;89.10
17364;DHT22;8799;43.594;13.526;2022-07-29T02:07:06;26.00;88.90
17364;DHT22;8799;43.594;13.526;2022-07-29T02:09:36;26.00;89.10
17364;DHT22;8799;43.594;13.526;2022-07-29T02:12:04;25.90;89.20
17364;DHT22;8799;43.594;13.526;2022-07-29T02:14:38;25.90;89.80
17364;DHT22;8799;43.594;13.526;2022-07-29T02:17:07;25.80;90.60
17364;DHT22;8799;43.594;13.526;2022-07-29T02:19:37;25.70;91.30
17364;DHT22;8799;43.594;13.526;2022-07-29T02:22:06;25.70;91.80
17364;DHT22;8799;43.594;13.526;2022-07-29T02:24:37;25.70;91.80
17364;DHT22;8799;43.594;13.526;2022-07-29T02:27:08;25.60;91.90
17364;DHT22;8799;43.594;13.526;2022-07-29T02:29:39;25.60;92.10
17364;DHT22;8799;43.594;13.526;2022-07-29T02:32:09;25.60;91.90
17364;DHT22;8799;43.594;13.526;2022-07-29T02:34:38;25.60;92.00
17364;DHT22;8799;43.594;13.526;2022-07-29T02:37:07;25.70;92.10
17364;DHT22;8799;43.594;13.526;2022-07-29T02:39:37;25.60;92.30
17364;DHT22;8799;43.594;13.526;2022-07-29T02:42:10;25.60;92.80
17364;DHT22;8799;43.594;13.526;2022-07-29T02:44:41;25.60;92.90
17364;DHT22;8799;43.594;13.526;2022-07-29T02:47:13;25.70;92.70
17364;DHT22;8799;43.594;13.526;2022-07-29T02:49:49;25.70;92.30
17364;DHT22;8799;43.594;13.526;2022-07-29T02:52:22;25.60;92.20
17364;DHT22;8799;43.594;13.526;2022-07-29T02:54:55;25.70;92.00
17364;DHT22;8799;43.594;13.526;2022-07-29T02:57:30;25.70;92.00
17364;DHT22;8799;43.594;13.526;2022-07-29T03:00:04;25.70;92.30
17364;DHT22;8799;43.594;13.526;2022-07-29T03:02:35;25.70;92.60
17364;DHT22;8799;43.594;13.526;2022-07-29T03:05:04;25.70;92.60
17364;DHT22;8799;43.594;13.526;2022-07-29T03:07:34;25.70;92.90
17364;DHT22;8799;43.594;13.526;2022-07-29T03:10:04;25.70;93.50
17364;DHT22;8799;43.594;13.526;2022-07-29T03:12:35;25.60;94.10
17364;DHT22;8799;43.594;13.526;2022-07-29T03:15:06;25.50;95.00
17364;DHT22;8799;43.594;13.526;2022-07-29T03:17:35;25.60;95.30
17364;DHT22;8799;43.594;13.526;2022-07-29T03:20:03;25.60;95.50
17364;DHT22;8799;43.594;13.526;2022-07-29T03:22:30;25.60;95.40
17364;DHT22;8799;43.594;13.526;2022-07-29T03:25:07;25.60;95.50
17364;DHT22;8799;43.594;13.526;2022-07-29T03:27:35;25.50;95.80
17364;DHT22;8799;43.594;13.526;2022-07-29T03:30:06;25.50;95.70
17364;DHT22;8799;43.594;13.526;2022-07-29T03:32:34;25.50;95.60
17364;DHT22;8799;43.594;13.526;2022-07-29T03:35:03;25.40;95.40
17364;DHT22;8799;43.594;13.526;2022-07-29T03:37:31;25.40;94.80
17364;DHT22;8799;43.594;13.526;2022-07-29T03:40:00;25.40;94.60
17364;DHT22;8799;43.594;13.526;2022-07-29T03:42:31;25.50;94.30
17364;DHT22;8799;43.594;13.526;2022-07-29T03:45:02;25.60;93.90
17364;DHT22;8799;43.594;13.526;2022-07-29T03:47:34;25.60;94.00
17364;DHT22;8799;43.594;13.526;2022-07-29T03:50:05;25.60;93.90
17364;DHT22;8799;43.594;13.526;2022-07-29T03:52:34;25.70;93.70
17364;DHT22;8799;43.594;13.526;2022-07-29T03:55:03;25.70;93.10
17364;DHT22;8799;43.594;13.526;2022-07-29T03:57:32;25.80;92.80
17364;DHT22;8799;43.594;13.526;2022-07-29T04:00:02;25.90;92.60
17364;DHT22;8799;43.594;13.526;2022-07-29T04:02:31;25.80;92.60
17364;DHT22;8799;43.594;13.526;2022-07-29T04:05:00;25.80;92.80
17364;DHT22;8799;43.594;13.526;2022-07-29T04:07:28;25.80;92.70
17364;DHT22;8799;43.594;13.526;2022-07-29T04:09:56;25.90;92.70
17364;DHT22;8799;43.594;13.526;2022-07-29T04:12:24;25.90;93.20
17364;DHT22;8799;43.594;13.526;2022-07-29T04:14:51;26.00;93.80
17364;DHT22;8799;43.594;13.526;2022-07-29T04:17:19;26.10;93.40
17364;DHT22;8799;43.594;13.526;2022-07-29T04:19:49;26.10;93.70
17364;DHT22;8799;43.594;13.526;2022-07-29T04:22:16;26.10;94.20
17364;DHT22;8799;43.594;13.526;2022-07-29T04:24:44;26.00;95.00
17364;DHT22;8799;43.594;13.526;2022-07-29T04:27:12;26.00;95.70
17364;DHT22;8799;43.594;13.526;2022-07-29T04:29:40;26.00;96.20
17364;DHT22;8799;43.594;13.526;2022-07-29T04:32:07;26.00;96.60
17364;DHT22;8799;43.594;13.526;2022-07-29T04:34:35;26.00;96.90
17364;DHT22;8799;43.594;13.526;2022-07-29T04:37:05;26.00;97.20
17364;DHT22;8799;43.594;13.526;2022-07-29T04:39:35;26.10;97.10
17364;DHT22;8799;43.594;13.526;2022-07-29T04:42:03;26.10;97.00
17364;DHT22;8799;43.594;13.526;2022-07-29T04:44:31;26.10;97.00
17364;DHT22;8799;43.594;13.526;2022-07-29T04:46:59;26.00;96.60
17364;DHT22;8799;43.594;13.526;2022-07-29T04:49:26;26.00;96.40
17364;DHT22;8799;43.594;13.526;2022-07-29T04:51:55;25.90;95.80
17364;DHT22;8799;43.594;13.526;2022-07-29T04:54:24;25.90;95.80
17364;DHT22;8799;43.594;13.526;2022-07-29T04:56:51;25.90;96.10
17364;DHT22;8799;43.594;13.526;2022-07-29T04:59:19;25.90;96.50
17364;DHT22;8799;43.594;13.526;2022-07-29T05:01:48;25.90;96.80
17364;DHT22;8799;43.594;13.526;2022-07-29T05:04:15;25.90;97.10
17364;DHT22;8799;43.594;13.526;2022-07-29T05:06:46;25.90;97.60
17364;DHT22;8799;43.594;13.526;2022-07-29T05:09:14;26.00;98.60
17364;DHT22;8799;43.594;13.526;2022-07-29T05:11:43;26.00;98.60
17364;DHT22;8799;43.594;13.526;2022-07-29T05:14:11;26.00;98.80
17364;DHT22;8799;43.594;13.526;2022-07-29T05:16:38;26.10;98.60
17364;DHT22;8799;43.594;13.526;2022-07-29T05:19:07;26.00;98.80
17364;DHT22;8799;43.594;13.526;2022-07-29T05:21:34;26.10;98.70
17364;DHT22;8799;43.594;13.526;2022-07-29T05:24:03;26.10;98.90
17364;DHT22;8799;43.594;13.526;2022-07-29T05:26:31;26.10;99.90
17364;DHT22;8799;43.594;13.526;2022-07-29T05:29:01;26.10;99.90
17364;DHT22;8799;43.594;13.526;2022-07-29T05:31:28;26.10;99.90
17364;DHT22;8799;43.594;13.526;2022-07-29T05:33:59;26.10;99.90
17364;DHT22;8799;43.594;13.526;2022-07-29T05:36:27;26.10;99.90
17364;DHT22;8799;43.594;13.526;2022-07-29T05:38:55;26.20;99.90
17364;DHT22;8799;43.594;13.526;2022-07-29T05:41:22;26.20;99.90
17364;DHT22;8799;43.594;13.526;2022-07-29T05:43:50;26.20;99.90
17364;DHT22;8799;43.594;13.526;2022-07-29T05:46:20;26.20;99.90
17364;DHT22;8799;43.594;13.526;2022-07-29T05:48:47;26.20;99.90
17364;DHT22;8799;43.594;13.526;2022-07-29T05:51:15;26.20;99.90
17364;DHT22;8799;43.594;13.526;2022-07-29T05:53:43;26.30;99.90
17364;DHT22;8799;43.594;13.526;2022-07-29T05:56:11;26.30;99.90
17364;DHT22;8799;43.594;13.526;2022-07-29T05:58:39;26.30;99.90
17364;DHT22;8799;43.594;13.526;2022-07-29T06:01:09;26.30;99.90
17364;DHT22;8799;43.594;13.526;2022-07-29T06:03:38;26.40;99.90
17364;DHT22;8799;43.594;13.526;2022-07-29T06:06:06;26.40;99.90
17364;DHT22;8799;43.594;13.526;2022-07-29T06:08:34;26.40;99.90
17364;DHT22;8799;43.594;13.526;2022-07-29T06:11:03;26.40;99.90
17364;DHT22;8799;43.594;13.526;2022-07-29T06:13:30;26.50;99.90
17364;DHT22;8799;43.594;13.526;2022-07-29T06:15:58;26.50;99.90
17364;DHT22;8799;43.594;13.526;2022-07-29T06:18:26;26.40;99.90
17364;DHT22;8799;43.594;13.526;2022-07-29T06:20:55;26.50;99.90
17364;DHT22;8799;43.594;13.526;2022-07-29T06:23:22;26.50;99.90
17364;DHT22;8799;43.594;13.526;2022-07-29T06:25:50;26.60;99.90
17364;DHT22;8799;43.594;13.526;2022-07-29T06:28:18;26.60;99.90
17364;DHT22;8799;43.594;13.526;2022-07-29T06:30:46;26.70;99.90
17364;DHT22;8799;43.594;13.526;2022-07-29T06:33:16;26.70;99.90
17364;DHT22;8799;43.594;13.526;2022-07-29T06:35:44;26.70;99.90
17364;DHT22;8799;43.594;13.526;2022-07-29T06:38:15;26.70;99.90
17364;DHT22;8799;43.594;13.526;2022-07-29T06:40:42;26.70;99.90
17364;DHT22;8799;43.594;13.526;2022-07-29T06:43:31;26.70;99.90
17364;DHT22;8799;43.594;13.526;2022-07-29T06:46:04;26.80;99.90
17364;DHT22;8799;43.594;13.526;2022-07-29T06:48:32;26.80;99.90
17364;DHT22;8799;43.594;13.526;2022-07-29T06:51:00;26.80;99.90
17364;DHT22;8799;43.594;13.526;2022-07-29T06:53:30;26.80;99.90
17364;DHT22;8799;43.594;13.526;2022-07-29T06:55:59;26.80;99.90
17364;DHT22;8799;43.594;13.526;2022-07-29T06:58:27;26.80;99.90
17364;DHT22;8799;43.594;13.526;2022-07-29T07:01:05;26.80;99.90
17364;DHT22;8799;43.594;13.526;2022-07-29T07:03:33;26.90;99.90
17364;DHT22;8799;43.594;13.526;2022-07-29T07:06:00;26.90;99.90
17364;DHT22;8799;43.594;13.526;2022-07-29T07:08:30;26.90;99.90
17364;DHT22;8799;43.594;13.526;2022-07-29T07:10:57;26.90;99.80
17364;DHT22;8799;43.594;13.526;2022-07-29T07:13:26;26.90;99.70
17364;DHT22;8799;43.594;13.526;2022-07-29T07:15:53;27.00;99.90
17364;DHT22;8799;43.594;13.526;2022-07-29T07:18:21;27.00;99.80
17364;DHT22;8799;43.594;13.526;2022-07-29T07:20:48;27.00;99.50
17364;DHT22;8799;43.594;13.526;2022-07-29T07:23:16;27.00;98.90
17364;DHT22;8799;43.594;13.526;2022-07-29T07:25:45;27.00;98.70
17364;DHT22;8799;43.594;13.526;2022-07-29T07:28:13;27.10;98.40
17364;DHT22;8799;43.594;13.526;2022-07-29T07:30:41;27.00;97.70
17364;DHT22;8799;43.594;13.526;2022-07-29T07:33:08;27.10;97.20
17364;DHT22;8799;43.594;13.526;2022-07-29T07:35:36;27.10;97.20
17364;DHT22;8799;43.594;13.526;2022-07-29T07:38:04;27.10;97.30
17364;DHT22;8799;43.594;13.526;2022-07-29T07:40:32;27.10;97.20
17364;DHT22;8799;43.594;13.526;2022-07-29T07:43:01;27.10;97.10
17364;DHT22;8799;43.594;13.526;2022-07-29T07:45:28;27.20;97.00
17364;DHT22;8799;43.594;13.526;2022-07-29T07:47:58;27.20;95.50
17364;DHT22;8799;43.594;13.526;2022-07-29T07:50:27;27.10;94.50
17364;DHT22;8799;43.594;13.526;2022-07-29T07:52:55;27.20;94.20
17364;DHT22;8799;43.594;13.526;2022-07-29T07:55:25;27.20;94.10
17364;DHT22;8799;43.594;13.526;2022-07-29T07:57:54;27.20;94.20
17364;DHT22;8799;43.594;13.526;2022-07-29T08:00:23;27.20;94.50
17364;DHT22;8799;43.594;13.526;2022-07-29T08:02:51;27.20;94.90
17364;DHT22;8799;43.594;13.526;2022-07-29T08:05:18;27.20;94.90
17364;DHT22;8799;43.594;13.526;2022-07-29T08:07:46;27.30;94.50
17364;DHT22;8799;43.594;13.526;2022-07-29T08:10:14;27.30;94.30
17364;DHT22;8799;43.594;13.526;2022-07-29T08:13:03;27.30;94.20
17364;DHT22;8799;43.594;13.526;2022-07-29T08:15:32;27.30;93.90
17364;DHT22;8799;43.594;13.526;2022-07-29T08:18:00;27.30;93.10
17364;DHT22;8799;43.594;13.526;2022-07-29T08:20:28;27.30;92.40
17364;DHT22;8799;43.594;13.526;2022-07-29T08:22:59;27.30;92.30
17364;DHT22;8799;43.594;13.526;2022-07-29T08:25:26;27.30;92.10
17364;DHT22;8799;43.594;13.526;2022-07-29T08:27:53;27.30;91.50
17364;DHT22;8799;43.594;13.526;2022-07-29T08:30:22;27.30;90.90
17364;DHT22;8799;43.594;13.526;2022-07-29T08:32:52;27.30;91.00
17364;DHT22;8799;43.594;13.526;2022-07-29T08:35:20;27.30;91.20
17364;DHT22;8799;43.594;13.526;2022-07-29T08:37:48;27.40;91.20
17364;DHT22;8799;43.594;13.526;2022-07-29T08:40:16;27.40;90.90
17364;DHT22;8799;43.594;13.526;2022-07-29T08:42:44;27.40;90.90
17364;DHT22;8799;43.594;13.526;2022-07-29T08:45:12;27.40;90.60
17364;DHT22;8799;43.594;13.526;2022-07-29T08:47:40;27.40;90.90
17364;DHT22;8799;43.594;13.526;2022-07-29T08:50:10;27.50;91.10
17364;DHT22;8799;43.594;13.526;2022-07-29T08:52:39;27.50;92.10
17364;DHT22;8799;43.594;13.526;2022-07-29T08:55:09;27.50;93.20
17364;DHT22;8799;43.594;13.526;2022-07-29T08:57:45;27.50;93.70
17364;DHT22;8799;43.594;13.526;2022-07-29T09:00:13;27.60;93.80
17364;DHT22;8799;43.594;13.526;2022-07-29T09:02:46;27.50;93.80
17364;DHT22;8799;43.594;13.526;2022-07-29T09:05:20;27.50;93.80
17364;DHT22;8799;43.594;13.526;2022-07-29T09:07:47;27.50;93.90
17364;DHT22;8799;43.594;13.526;2022-07-29T09:10:15;27.50;93.90
17364;DHT22;8799;43.594;13.526;2022-07-29T09:12:42;27.50;93.90
17364;DHT22;8799;43.594;13.526;2022-07-29T09:15:10;27.60;93.60
17364;DHT22;8799;43.594;13.526;2022-07-29T09:17:43;27.50;93.60
17364;DHT22;8799;43.594;13.526;2022-07-29T09:20:12;27.50;93.30
17364;DHT22;8799;43.594;13.526;2022-07-29T09:22:42;27.50;93.50
17364;DHT22;8799;43.594;13.526;2022-07-29T09:25:12;27.50;93.70
17364;DHT22;8799;43.594;13.526;2022-07-29T09:27:40;27.60;94.30
17364;DHT22;8799;43.594;13.526;2022-07-29T09:30:10;27.60;94.70
17364;DHT22;8799;43.594;13.526;2022-07-29T09:32:56;27.60;95.30
17364;DHT22;8799;43.594;13.526;2022-07-29T09:35:28;27.60;94.50
17364;DHT22;8799;43.594;13.526;2022-07-29T09:37:58;27.60;93.90
17364;DHT22;8799;43.594;13.526;2022-07-29T09:40:36;27.60;94.00
17364;DHT22;8799;43.594;13.526;2022-07-29T09:43:10;27.60;94.10
17364;DHT22;8799;43.594;13.526;2022-07-29T09:45:39;27.60;94.20
17364;DHT22;8799;43.594;13.526;2022-07-29T09:48:14;27.60;94.70
17364;DHT22;8799;43.594;13.526;2022-07-29T09:50:45;27.50;95.20
17364;DHT22;8799;43.594;13.526;2022-07-29T09:53:30;27.60;95.50
17364;DHT22;8799;43.594;13.526;2022-07-29T09:55:58;27.60;95.80
17364;DHT22;8799;43.594;13.526;2022-07-29T09:58:26;27.60;96.20
17364;DHT22;8799;43.594;13.526;2022-07-29T10:00:54;27.60;96.50
17364;DHT22;8799;43.594;13.526;2022-07-29T10:03:23;27.50;97.10
17364;DHT22;8799;43.594;13.526;2022-07-29T10:06:06;27.60;97.50
17364;DHT22;8799;43.594;13.526;2022-07-29T10:08:36;27.60;97.80
17364;DHT22;8799;43.594;13.526;2022-07-29T10:11:12;27.60;98.10
17364;DHT22;8799;43.594;13.526;2022-07-29T10:13:41;27.60;98.40
17364;DHT22;8799;43.594;13.526;2022-07-29T10:16:10;27.60;98.50
17364;DHT22;8799;43.594;13.526;2022-07-29T10:18:38;27.70;99.10
17364;DHT22;8799;43.594;13.526;2022-07-29T10:21:07;27.70;99.40
17364;DHT22;8799;43.594;13.526;2022-07-29T10:23:38;27.70;99.40
17364;DHT22;8799;43.594;13.526;2022-07-29T10:26:07;27.70;98.60
17364;DHT22;8799;43.594;13.526;2022-07-29T10:28:35;27.70;98.90
17364;DHT22;8799;43.594;13.526;2022-07-29T10:31:06;27.60;98.60
17364;DHT22;8799;43.594;13.526;2022-07-29T10:33:47;27.60;98.30
17364;DHT22;8799;43.594;13.526;2022-07-29T10:36:31;27.60;97.90
17364;DHT22;8799;43.594;13.526;2022-07-29T10:39:15;27.60;98.10
17364;DHT22;8799;43.594;13.526;2022-07-29T10:41:59;27.70;97.70
17364;DHT22;8799;43.594;13.526;2022-07-29T10:44:29;27.60;97.50
17364;DHT22;8799;43.594;13.526;2022-07-29T10:46:57;27.60;98.40
17364;DHT22;8799;43.594;13.526;2022-07-29T10:49:28;27.60;97.60
17364;DHT22;8799;43.594;13.526;2022-07-29T10:52:02;27.60;98.10
17364;DHT22;8799;43.594;13.526;2022-07-29T10:54:59;27.60;98.00
17364;DHT22;8799;43.594;13.526;2022-07-29T10:57:32;27.60;97.40
17364;DHT22;8799;43.594;13.526;2022-07-29T11:00:26;27.70;96.80
17364;DHT22;8799;43.594;13.526;2022-07-29T11:02:54;27.70;96.50
17364;DHT22;8799;43.594;13.526;2022-07-29T11:05:24;27.60;95.60
17364;DHT22;8799;43.594;13.526;2022-07-29T11:08:18;27.60;96.10
17364;DHT22;8799;43.594;13.526;2022-07-29T11:13:49;27.70;97.60
17364;DHT22;8799;43.594;13.526;2022-07-29T11:16:19;27.70;97.30
17364;DHT22;8799;43.594;13.526;2022-07-29T11:19:18;27.70;98.00
17364;DHT22;8799;43.594;13.526;2022-07-29T11:21:46;27.70;98.40
17364;DHT22;8799;43.594;13.526;2022-07-29T11:24:18;27.70;98.40
17364;DHT22;8799;43.594;13.526;2022-07-29T11:27:15;27.70;97.50
17364;DHT22;8799;43.594;13.526;2022-07-29T11:29:54;27.70;98.00
17364;DHT22;8799;43.594;13.526;2022-07-29T11:32:24;27.70;98.70
17364;DHT22;8799;43.594;13.526;2022-07-29T11:35:10;27.70;98.50
17364;DHT22;8799;43.594;13.526;2022-07-29T11:37:38;27.80;98.90
17364;DHT22;8799;43.594;13.526;2022-07-29T11:40:14;27.80;98.00
17364;DHT22;8799;43.594;13.526;2022-07-29T11:42:48;27.80;97.70
17364;DHT22;8799;43.594;13.526;2022-07-29T11:45:26;27.70;96.60
17364;DHT22;8799;43.594;13.526;2022-07-29T11:47:59;27.60;95.80
17364;DHT22;8799;43.594;13.526;2022-07-29T11:50:31;27.60;96.30
17364;DHT22;8799;43.594;13.526;2022-07-29T11:53:01;27.60;96.10
17364;DHT22;8799;43.594;13.526;2022-07-29T11:55:28;27.60;96.50
17364;DHT22;8799;43.594;13.526;2022-07-29T11:57:59;27.60;97.40
17364;DHT22;8799;43.594;13.526;2022-07-29T12:00:30;27.60;97.90
17364;DHT22;8799;43.594;13.526;2022-07-29T12:02:59;27.60;97.80
17364;DHT22;8799;43.594;13.526;2022-07-29T12:05:36;27.70;98.20
17364;DHT22;8799;43.594;13.526;2022-07-29T12:08:12;27.60;97.90
17364;DHT22;8799;43.594;13.526;2022-07-29T12:10:41;27.60;97.30
17364;DHT22;8799;43.594;13.526;2022-07-29T12:13:11;27.60;96.60
17364;DHT22;8799;43.594;13.526;2022-07-29T12:15:40;27.60;95.40
17364;DHT22;8799;43.594;13.526;2022-07-29T12:18:14;27.60;94.50
17364;DHT22;8799;43.594;13.526;2022-07-29T12:20:42;27.60;94.40
17364;DHT22;8799;43.594;13.526;2022-07-29T12:23:10;27.60;95.90
17364;DHT22;8799;43.594;13.526;2022-07-29T12:25:42;27.60;97.20
17364;DHT22;8799;43.594;13.526;2022-07-29T12:28:24;27.60;98.20
17364;DHT22;8799;43.594;13.526;2022-07-29T12:30:52;27.60;99.30
17364;DHT22;8799;43.594;13.526;2022-07-29T12:33:21;27.70;99.40
17364;DHT22;8799;43.594;13.526;2022-07-29T12:35:51;27.70;99.70
17364;DHT22;8799;43.594;13.526;2022-07-29T12:38:21;27.70;99.90
17364;DHT22;8799;43.594;13.526;2022-07-29T12:40:52;27.80;99.90
17364;DHT22;8799;43.594;13.526;2022-07-29T12:43:23;27.80;99.90
17364;DHT22;8799;43.594;13.526;2022-07-29T12:45:54;27.70;99.60
17364;DHT22;8799;43.594;13.526;2022-07-29T12:48:35;27.70;99.70
17364;DHT22;8799;43.594;13.526;2022-07-29T12:51:04;27.70;99.90
17364;DHT22;8799;43.594;13.526;2022-07-29T12:53:31;27.70;99.60
17364;DHT22;8799;43.594;13.526;2022-07-29T12:56:01;27.70;99.90
17364;DHT22;8799;43.594;13.526;2022-07-29T12:58:34;27.60;99.90
17364;DHT22;8799;43.594;13.526;2022-07-29T13:01:07;27.70;99.90
17364;DHT22;8799;43.594;13.526;2022-07-29T13:03:47;27.70;99.90
17364;DHT22;8799;43.594;13.526;2022-07-29T13:06:33;27.70;99.90
17364;DHT22;8799;43.594;13.526;2022-07-29T13:09:05;27.70;99.90
17364;DHT22;8799;43.594;13.526;2022-07-29T13:11:35;27.70;99.90
17364;DHT22;8799;43.594;13.526;2022-07-29T13:14:06;27.70;99.90
17364;DHT22;8799;43.594;13.526;2022-07-29T13:16:35;27.70;99.90
17364;DHT22;8799;43.594;13.526;2022-07-29T13:19:17;27.70;99.90
17364;DHT22;8799;43.594;13.526;2022-07-29T13:21:45;27.70;99.90
17364;DHT22;8799;43.594;13.526;2022-07-29T13:24:13;27.80;99.90
17364;DHT22;8799;43.594;13.526;2022-07-29T13:26:41;27.80;99.90
17364;DHT22;8799;43.594;13.526;2022-07-29T13:29:11;27.80;99.90
17364;DHT22;8799;43.594;13.526;2022-07-29T13:31:38;27.80;99.90
17364;DHT22;8799;43.594;13.526;2022-07-29T13:34:10;27.80;99.90
17364;DHT22;8799;43.594;13.526;2022-07-29T13:36:38;27.90;99.90
17364;DHT22;8799;43.594;13.526;2022-07-29T13:39:06;27.90;99.90
17364;DHT22;8799;43.594;13.526;2022-07-29T13:41:33;27.90;99.90
17364;DHT22;8799;43.594;13.526;2022-07-29T13:44:01;27.90;99.90
17364;DHT22;8799;43.594;13.526;2022-07-29T13:46:30;27.90;99.90
17364;DHT22;8799;43.594;13.526;2022-07-29T13:48:58;27.90;99.90
17364;DHT22;8799;43.594;13.526;2022-07-29T13:51:26;27.90;99.90
17364;DHT22;8799;43.594;13.526;2022-07-29T13:53:53;27.90;99.90
17364;DHT22;8799;43.594;13.526;2022-07-29T13:56:21;27.90;99.90
17364;DHT22;8799;43.594;13.526;2022-07-29T13:58:49;28.00;99.90
17364;DHT22;8799;43.594;13.526;2022-07-29T14:01:16;28.00;99.90
17364;DHT22;8799;43.594;13.526;2022-07-29T14:03:45;28.00;99.90
17364;DHT22;8799;43.594;13.526;2022-07-29T14:06:13;28.00;99.90
17364;DHT22;8799;43.594;13.526;2022-07-29T14:08:41;28.00;99.90
17364;DHT22;8799;43.594;13.526;2022-07-29T14:11:08;27.90;99.70
17364;DHT22;8799;43.594;13.526;2022-07-29T14:13:38;28.00;99.90
17364;DHT22;8799;43.594;13.526;2022-07-29T14:16:10;28.00;99.80
17364;DHT22;8799;43.594;13.526;2022-07-29T14:18:38;28.00;99.70
17364;DHT22;8799;43.594;13.526;2022-07-29T14:21:08;28.00;99.60
17364;DHT22;8799;43.594;13.526;2022-07-29T14:23:36;28.10;99.50
17364;DHT22;8799;43.594;13.526;2022-07-29T14:26:04;28.10;99.20
17364;DHT22;8799;43.594;13.526;2022-07-29T14:28:32;28.10;99.40
17364;DHT22;8799;43.594;13.526;2022-07-29T14:31:00;28.10;99.50
17364;DHT22;8799;43.594;13.526;2022-07-29T14:33:28;28.10;99.30
17364;DHT22;8799;43.594;13.526;2022-07-29T14:35:56;28.00;99.50
17364;DHT22;8799;43.594;13.526;2022-07-29T14:38:26;28.00;99.80
17364;DHT22;8799;43.594;13.526;2022-07-29T14:40:57;28.00;99.90
17364;DHT22;8799;43.594;13.526;2022-07-29T14:43:25;28.00;99.90
17364;DHT22;8799;43.594;13.526;2022-07-29T14:45:53;28.00;99.90
17364;DHT22;8799;43.594;13.526;2022-07-29T14:48:21;28.00;99.90
17364;DHT22;8799;43.594;13.526;2022-07-29T14:50:50;28.10;99.90
17364;DHT22;8799;43.594;13.526;2022-07-29T14:53:18;28.10;99.90
17364;DHT22;8799;43.594;13.526;2022-07-29T14:55:48;28.10;99.90
17364;DHT22;8799;43.594;13.526;2022-07-29T14:58:17;28.10;99.90
17364;DHT22;8799;43.594;13.526;2022-07-29T15:01:08;28.10;99.90
17364;DHT22;8799;43.594;13.526;2022-07-29T15:03:36;28.10;99.90
17364;DHT22;8799;43.594;13.526;2022-07-29T15:06:04;28.10;99.90
17364;DHT22;8799;43.594;13.526;2022-07-29T15:08:34;28.10;99.90
17364;DHT22;8799;43.594;13.526;2022-07-29T15:11:04;28.00;99.70
17364;DHT22;8799;43.594;13.526;2022-07-29T15:13:33;28.10;99.10
17364;DHT22;8799;43.594;13.526;2022-07-29T15:16:01;28.10;98.60
17364;DHT22;8799;43.594;13.526;2022-07-29T15:18:28;28.10;98.10
17364;DHT22;8799;43.594;13.526;2022-07-29T15:20:56;28.00;96.90
17364;DHT22;8799;43.594;13.526;2022-07-29T15:23:24;28.00;96.50
17364;DHT22;8799;43.594;13.526;2022-07-29T15:25:53;28.00;96.90
17364;DHT22;8799;43.594;13.526;2022-07-29T15:28:22;28.00;96.70
17364;DHT22;8799;43.594;13.526;2022-07-29T15:30:50;28.00;97.00
17364;DHT22;8799;43.594;13.526;2022-07-29T15:33:18;28.00;96.80
17364;DHT22;8799;43.594;13.526;2022-07-29T15:35:46;28.00;96.90
17364;DHT22;8799;43.594;13.526;2022-07-29T15:38:15;28.00;96.70
17364;DHT22;8799;43.594;13.526;2022-07-29T15:40:42;27.90;96.00
17364;DHT22;8799;43.594;13.526;2022-07-29T15:43:11;28.00;96.60
17364;DHT22;8799;43.594;13.526;2022-07-29T15:45:42;28.00;96.70
17364;DHT22;8799;43.594;13.526;2022-07-29T15:48:30;27.90;95.90
17364;DHT22;8799;43.594;13.526;2022-07-29T15:50:58;27.90;95.70
17364;DHT22;8799;43.594;13.526;2022-07-29T15:53:27;27.90;95.50